createdAt,value
2022-11-07T00:02:22.421Z,14.47
2022-11-07T00:04:51.152Z,12.77
2022-11-07T00:07:19.741Z,14.20
2022-11-07T00:09:48.323Z,11.60
2022-11-07T00:12:16.983Z,11.73
2022-11-07T00:14:45.607Z,12.23
2022-11-07T00:17:15.602Z,10.87
2022-11-07T00:19:44.201Z,11.93
2022-11-07T00:22:12.875Z,11.13
2022-11-07T00:24:41.989Z,9.73
2022-11-07T00:27:11.795Z,11.87
2022-11-07T00:29:41.140Z,11.77
2022-11-07T00:32:09.757Z,13.03
2022-11-07T00:34:39.794Z,9.90
2022-11-07T00:37:08.488Z,11.80
2022-11-07T00:39:37.119Z,12.30
2022-11-07T00:42:06.035Z,11.77
2022-11-07T00:44:35.033Z,10.13
2022-11-07T00:47:03.650Z,12.73
2022-11-07T00:49:32.382Z,11.97
2022-11-07T00:52:02.414Z,11.90
2022-11-07T00:54:31.093Z,9.40
2022-11-07T00:56:59.669Z,12.50
2022-11-07T00:59:28.312Z,11.23
2022-11-07T01:01:57.065Z,11.23
2022-11-07T01:04:43.359Z,9.93
2022-11-07T01:07:13.451Z,11.47
2022-11-07T01:09:42.144Z,11.27
2022-11-07T01:12:10.768Z,9.63
2022-11-07T01:14:39.457Z,9.70
2022-11-07T01:17:08.137Z,9.07
2022-11-07T01:19:36.901Z,8.90
2022-11-07T01:22:05.593Z,11.33
2022-11-07T01:24:35.862Z,12.07
2022-11-07T01:27:04.864Z,11.23
2022-11-07T01:29:33.446Z,10.23
2022-11-07T01:32:02.156Z,9.47
2022-11-07T01:34:30.819Z,7.13
2022-11-07T01:36:59.469Z,8.90
2022-11-07T01:39:28.166Z,8.23
2022-11-07T01:41:58.374Z,6.83
2022-11-07T01:44:55.668Z,8.17
2022-11-07T01:47:30.225Z,8.57
2022-11-07T01:50:00.338Z,10.20
2022-11-07T01:52:35.263Z,9.13
2022-11-07T01:55:09.868Z,9.77
2022-11-07T01:57:46.361Z,9.30
2022-11-07T02:00:20.080Z,8.77
2022-11-07T02:02:56.777Z,8.13
2022-11-07T02:05:32.076Z,7.63
2022-11-07T02:08:02.211Z,8.70
2022-11-07T02:10:31.507Z,10.43
2022-11-07T02:13:03.618Z,9.10
2022-11-07T02:15:33.793Z,8.00
2022-11-07T02:18:03.726Z,8.23
2022-11-07T02:20:32.449Z,7.83
2022-11-07T02:23:08.603Z,6.60
2022-11-07T02:25:39.446Z,7.67
2022-11-07T02:28:11.477Z,10.40
2022-11-07T02:30:40.145Z,7.10
2022-11-07T02:33:19.382Z,6.77
2022-11-07T02:35:51.337Z,6.47
2022-11-07T02:38:24.955Z,5.67
2022-11-07T02:41:01.513Z,7.23
2022-11-07T02:43:33.134Z,7.43
2022-11-07T02:46:07.108Z,7.27
2022-11-07T02:48:45.174Z,7.27
2022-11-07T02:51:13.944Z,6.70
2022-11-07T02:53:42.689Z,5.83
2022-11-07T02:56:12.682Z,5.37
2022-11-07T02:58:41.442Z,4.70
2022-11-07T03:01:10.397Z,5.90
2022-11-07T03:03:42.566Z,5.80
2022-11-07T03:06:14.919Z,5.27
2022-11-07T03:08:44.346Z,4.43
2022-11-07T03:11:19.889Z,8.03
2022-11-07T03:13:50.048Z,6.37
2022-11-07T03:16:20.850Z,6.50
2022-11-07T03:18:49.815Z,5.97
2022-11-07T03:21:18.513Z,4.50
2022-11-07T03:23:47.139Z,6.43
2022-11-07T03:26:17.534Z,3.60
2022-11-07T03:28:46.132Z,4.80
2022-11-07T03:31:14.752Z,4.93
2022-11-07T03:33:43.416Z,4.70
2022-11-07T03:36:12.557Z,4.10
2022-11-07T03:38:41.274Z,4.93
2022-11-07T03:41:10.038Z,4.47
2022-11-07T03:43:40.048Z,6.73
2022-11-07T03:46:08.654Z,6.80
2022-11-07T03:48:37.307Z,5.20
2022-11-07T03:51:06.354Z,4.80
2022-11-07T03:53:34.980Z,5.43
2022-11-07T03:56:10.629Z,4.10
2022-11-07T03:58:40.874Z,4.87
2022-11-07T04:01:11.753Z,8.67
2022-11-07T04:03:40.753Z,3.83
2022-11-07T04:06:09.776Z,3.63
2022-11-07T04:08:38.490Z,3.37
2022-11-07T04:11:07.702Z,6.67
2022-11-07T04:13:53.809Z,5.23
2022-11-07T04:16:41.292Z,4.43
2022-11-07T04:19:10.260Z,3.63
2022-11-07T04:21:39.276Z,4.07
2022-11-07T04:24:08.393Z,5.67
2022-11-07T04:26:54.411Z,4.70
2022-11-07T04:29:23.266Z,3.90
2022-11-07T04:31:53.393Z,4.43
2022-11-07T04:34:22.125Z,3.20
2022-11-07T04:36:50.836Z,7.30
2022-11-07T04:39:19.495Z,3.60
2022-11-07T04:41:48.064Z,7.63
2022-11-07T04:44:16.738Z,3.70
2022-11-07T04:46:45.381Z,6.97
2022-11-07T04:49:16.194Z,4.73
2022-11-07T04:51:45.991Z,6.80
2022-11-07T04:54:16.174Z,3.93
2022-11-07T04:56:44.872Z,3.63
2022-11-07T04:59:13.536Z,4.07
2022-11-07T05:01:42.246Z,9.90
2022-11-07T05:04:10.954Z,4.37
2022-11-07T05:06:41.129Z,5.50
2022-11-07T05:09:10.827Z,5.80
2022-11-07T05:11:39.490Z,4.33
2022-11-07T05:14:08.622Z,5.53
2022-11-07T05:16:39.038Z,7.97
2022-11-07T05:19:07.982Z,17.03
2022-11-07T05:21:36.961Z,9.93
2022-11-07T05:24:06.970Z,12.47
2022-11-07T05:26:35.796Z,11.13
2022-11-07T05:29:15.639Z,16.47
2022-11-07T05:31:45.215Z,15.60
2022-11-07T05:34:14.859Z,8.87
2022-11-07T05:36:44.357Z,8.33
2022-11-07T05:39:16.291Z,11.90
2022-11-07T05:41:56.384Z,9.77
2022-11-07T05:44:25.540Z,12.70
2022-11-07T05:46:54.804Z,15.53
2022-11-07T05:49:24.148Z,15.10
2022-11-07T05:51:53.535Z,17.63
2022-11-07T05:54:24.693Z,23.43
2022-11-07T05:56:58.443Z,21.83
2022-11-07T05:59:27.415Z,24.20
2022-11-07T06:01:56.160Z,31.97
2022-11-07T06:04:25.030Z,31.57
2022-11-07T06:06:53.659Z,29.10
2022-11-07T06:09:23.620Z,37.17
2022-11-07T06:11:52.286Z,46.37
2022-11-07T06:14:20.973Z,43.50
2022-11-07T06:16:49.531Z,83.10
2022-11-07T06:19:18.291Z,77.13
2022-11-07T06:21:46.857Z,69.57
2022-11-07T06:24:15.702Z,66.57
2022-11-07T06:26:45.778Z,65.77
2022-11-07T06:29:14.372Z,84.97
2022-11-07T06:31:43.058Z,79.93
2022-11-07T06:34:11.644Z,78.63
2022-11-07T06:36:40.225Z,61.57
2022-11-07T06:39:08.862Z,62.57
2022-11-07T06:41:37.486Z,68.73
2022-11-07T06:44:07.575Z,63.83
2022-11-07T06:46:36.135Z,59.20
2022-11-07T06:49:04.991Z,66.87
2022-11-07T06:51:33.801Z,53.63
2022-11-07T06:54:02.593Z,45.60
2022-11-07T06:56:31.249Z,33.70
2022-11-07T06:59:00.027Z,35.87
2022-11-07T07:01:30.189Z,37.77
2022-11-07T07:04:01.088Z,33.13
2022-11-07T07:06:29.783Z,29.17
2022-11-07T07:08:59.420Z,25.13
2022-11-07T07:11:28.034Z,24.80
2022-11-07T07:14:02.004Z,20.33
2022-11-07T07:16:32.758Z,23.07
2022-11-07T07:19:01.409Z,23.30
2022-11-07T07:21:30.119Z,15.07
2022-11-07T07:23:58.687Z,19.37
2022-11-07T07:26:28.492Z,8.83
2022-11-07T07:28:57.113Z,9.00
2022-11-07T07:31:31.912Z,8.23
2022-11-07T07:34:01.937Z,5.73
2022-11-07T07:36:30.537Z,5.77
2022-11-07T07:38:59.123Z,5.67
2022-11-07T07:41:27.705Z,3.33
2022-11-07T07:43:59.698Z,5.60
2022-11-07T07:46:31.625Z,4.50
2022-11-07T07:49:01.981Z,4.27
2022-11-07T07:56:52.088Z,3.90
2022-11-07T07:59:20.792Z,2.40
2022-11-07T08:01:55.204Z,1.83
2022-11-07T08:04:25.505Z,2.33
2022-11-07T08:06:54.134Z,3.57
2022-11-07T08:09:22.832Z,3.40
2022-11-07T08:11:52.900Z,1.97
2022-11-07T08:14:22.625Z,4.00
2022-11-07T08:16:51.250Z,2.40
2022-11-07T08:19:19.835Z,2.30
2022-11-07T08:21:48.386Z,4.03
2022-11-07T08:24:17.029Z,4.13
2022-11-07T08:26:46.192Z,3.63
2022-11-07T08:29:16.258Z,2.37
2022-11-07T08:31:44.912Z,4.10
2022-11-07T08:34:13.533Z,2.70
2022-11-07T08:36:42.256Z,2.93
2022-11-07T08:39:10.916Z,2.40
2022-11-07T08:41:39.587Z,3.63
2022-11-07T08:44:09.872Z,6.60
2022-11-07T08:46:39.892Z,4.83
2022-11-07T08:49:08.555Z,1.80
2022-11-07T08:51:37.294Z,6.07
2022-11-07T08:54:06.376Z,5.77
2022-11-07T08:56:35.248Z,7.27
2022-11-07T08:59:03.855Z,4.20
2022-11-07T09:01:32.625Z,3.53
2022-11-07T09:04:02.873Z,5.27
2022-11-07T09:06:32.979Z,6.30
2022-11-07T09:09:01.815Z,4.03
2022-11-07T09:11:30.618Z,4.33
2022-11-07T09:19:02.361Z,4.63
2022-11-07T09:21:29.675Z,4.43
2022-11-07T09:23:56.997Z,4.87
2022-11-07T09:26:24.274Z,7.73
2022-11-07T09:28:54.110Z,4.07
2022-11-07T09:31:23.617Z,27.37
2022-11-07T09:33:51.110Z,5.07
2022-11-07T12:40:11.495Z,4.57
2022-11-07T12:44:20.846Z,4.67
2022-11-07T12:46:56.003Z,4.60
2022-11-07T12:50:02.967Z,6.00
2022-11-07T12:52:50.188Z,5.30
2022-11-07T12:55:25.737Z,4.63
2022-11-07T12:57:56.216Z,3.23
2022-11-07T13:00:30.306Z,5.37
2022-11-07T13:03:38.183Z,5.50
2022-11-07T13:06:19.601Z,3.77
2022-11-07T13:09:03.168Z,3.73
2022-11-07T13:11:46.043Z,5.63
2022-11-07T13:14:27.402Z,2.20
2022-11-07T13:17:15.208Z,2.70
2022-11-07T13:19:46.199Z,3.77
2022-11-07T13:22:33.551Z,3.17
2022-11-07T13:25:28.769Z,12.33
2022-11-07T13:28:26.737Z,5.90
2022-11-07T13:31:06.582Z,7.43
2022-11-07T13:33:38.211Z,6.60
2022-11-07T13:36:15.757Z,4.67
2022-11-07T13:38:52.729Z,10.47
2022-11-07T13:41:22.231Z,4.73
2022-11-07T13:43:58.919Z,5.20
2022-11-07T13:46:33.297Z,10.13
2022-11-07T13:49:11.740Z,10.10
2022-11-07T13:51:45.773Z,6.53
2022-11-07T13:54:27.241Z,5.43
2022-11-07T13:57:01.185Z,4.70
2022-11-07T13:59:45.539Z,4.07
2022-11-07T14:02:21.963Z,5.00
2022-11-07T14:05:15.182Z,4.53
2022-11-07T14:07:54.720Z,3.97
2022-11-07T14:10:30.179Z,3.93
2022-11-07T14:13:07.731Z,2.27
2022-11-07T14:15:44.411Z,5.03
2022-11-07T14:18:17.230Z,4.20
2022-11-07T14:20:53.783Z,4.20
2022-11-07T14:23:26.056Z,4.30
2022-11-07T14:26:01.009Z,5.77
2022-11-07T14:28:36.941Z,3.27
2022-11-07T14:31:09.179Z,4.83
2022-11-07T14:33:39.081Z,3.90
2022-11-07T14:36:13.369Z,5.33
2022-11-07T14:38:49.480Z,3.87
2022-11-07T14:41:20.068Z,7.77
2022-11-07T14:43:50.759Z,4.63
2022-11-07T14:46:24.267Z,7.23
2022-11-07T14:48:54.909Z,5.87
2022-11-07T14:51:30.359Z,4.10
2022-11-07T14:54:06.022Z,4.93
2022-11-07T14:56:40.319Z,6.47
2022-11-07T14:59:14.118Z,8.30
2022-11-07T15:01:56.561Z,8.73
2022-11-07T15:04:31.599Z,4.53
2022-11-07T15:07:12.438Z,12.43
2022-11-07T15:09:42.361Z,10.97
2022-11-07T15:12:21.217Z,9.03
2022-11-07T15:15:04.365Z,5.17
2022-11-07T15:17:40.076Z,12.53
2022-11-07T15:20:21.329Z,9.30
2022-11-07T15:22:51.557Z,6.73
2022-11-07T15:25:30.406Z,12.20
2022-11-07T15:27:59.347Z,8.97
2022-11-07T15:30:33.359Z,3.30
2022-11-07T15:33:02.305Z,6.20
2022-11-07T15:35:44.110Z,6.03
2022-11-07T15:38:22.148Z,5.63
2022-11-07T15:40:51.902Z,3.80
2022-11-07T15:43:22.081Z,7.43
2022-11-07T15:45:53.871Z,6.87
2022-11-07T15:48:28.376Z,7.90
2022-11-07T15:50:57.888Z,5.43
2022-11-07T15:53:33.359Z,4.00
2022-11-07T15:56:08.327Z,5.30
2022-11-07T15:58:37.052Z,6.87
2022-11-07T16:01:05.940Z,4.73
2022-11-07T16:03:34.585Z,5.20
2022-11-07T16:06:04.034Z,3.30
2022-11-07T16:08:35.698Z,8.03
2022-11-07T16:11:07.712Z,8.57
2022-11-07T16:13:36.414Z,6.17
2022-11-07T16:16:06.957Z,14.77
2022-11-07T16:18:42.177Z,19.40
2022-11-07T16:21:10.788Z,13.30
2022-11-07T16:23:42.338Z,11.97
2022-11-07T16:26:14.664Z,6.53
2022-11-07T16:28:45.329Z,16.87
2022-11-07T16:31:14.021Z,4.73
2022-11-07T16:33:42.721Z,6.17
2022-11-07T16:36:24.396Z,5.27
2022-11-07T16:38:56.502Z,9.17
2022-11-07T16:41:25.345Z,18.57
2022-11-07T16:43:54.108Z,12.37
2022-11-07T16:46:26.540Z,5.87
2022-11-07T16:49:03.223Z,9.17
2022-11-07T16:51:33.166Z,5.60
2022-11-07T16:54:03.857Z,9.13
2022-11-07T16:56:36.381Z,8.37
2022-11-07T16:59:08.412Z,8.37
2022-11-07T17:01:38.259Z,8.77
2022-11-07T17:04:07.628Z,6.67
2022-11-07T17:06:37.116Z,15.57
2022-11-07T17:09:13.305Z,10.93
2022-11-07T17:11:42.553Z,14.07
2022-11-07T17:14:11.337Z,16.33
2022-11-07T17:16:43.329Z,15.47
2022-11-07T17:19:13.574Z,13.60
2022-11-07T17:21:46.313Z,11.00
2022-11-07T17:24:16.792Z,11.47
2022-11-07T17:26:45.646Z,12.77
2022-11-07T17:29:15.702Z,14.27
2022-11-07T17:31:44.838Z,12.57
2022-11-07T17:34:13.614Z,16.77
2022-11-07T17:36:46.344Z,19.30
2022-11-07T17:39:20.422Z,22.63
2022-11-07T17:41:51.955Z,21.57
2022-11-07T17:44:21.061Z,19.43
2022-11-07T17:46:51.212Z,10.93
2022-11-07T17:49:22.193Z,11.90
2022-11-07T17:51:54.313Z,9.20
2022-11-07T17:54:29.269Z,7.80
2022-11-07T17:56:58.427Z,6.50
2022-11-07T17:59:27.121Z,4.67
2022-11-07T18:01:56.140Z,6.10
2022-11-07T18:04:24.969Z,7.30
2022-11-07T18:06:54.239Z,5.20
2022-11-07T18:09:24.681Z,7.53
2022-11-07T18:11:53.531Z,3.20
2022-11-07T18:14:22.315Z,5.13
2022-11-07T18:16:51.087Z,6.40
2022-11-07T18:19:19.953Z,4.40
2022-11-07T18:21:48.748Z,6.73
2022-11-07T18:24:17.624Z,10.57
2022-11-07T18:26:50.884Z,7.13
2022-11-07T18:29:21.589Z,9.07
2022-11-07T18:31:53.736Z,6.60
2022-11-07T18:34:22.674Z,5.97
2022-11-07T18:36:51.606Z,7.10
2022-11-07T18:39:23.053Z,4.03
2022-11-07T18:42:04.816Z,5.90
2022-11-07T18:44:33.750Z,4.53
2022-11-07T18:47:02.587Z,6.83
2022-11-07T18:49:31.486Z,6.67
2022-11-07T18:52:00.777Z,8.57
2022-11-07T18:54:30.039Z,8.00
2022-11-07T18:57:00.353Z,9.27
2022-11-07T18:59:29.553Z,7.40
2022-11-07T19:01:59.459Z,9.63
2022-11-07T19:04:28.456Z,5.80
2022-11-07T19:06:57.644Z,5.83
2022-11-07T19:09:33.452Z,6.40
2022-11-07T19:12:03.872Z,10.53
2022-11-07T19:14:33.195Z,7.30
2022-11-07T19:17:01.817Z,11.27
2022-11-07T19:19:30.617Z,7.80
2022-11-07T19:21:59.263Z,6.17
2022-11-07T19:24:27.955Z,9.00
2022-11-07T19:26:56.708Z,7.03
2022-11-07T19:29:27.401Z,8.23
2022-11-07T19:31:56.080Z,6.77
2022-11-07T19:34:25.828Z,6.03
2022-11-07T19:36:55.002Z,8.43
2022-11-07T19:39:25.180Z,7.97
2022-11-07T19:41:54.265Z,8.27
2022-11-07T19:44:22.870Z,9.60
2022-11-07T19:46:57.071Z,7.40
2022-11-07T19:49:26.134Z,9.77
2022-11-07T19:51:56.288Z,10.27
2022-11-07T19:54:25.159Z,4.10
2022-11-07T19:56:57.667Z,9.03
2022-11-07T19:59:26.681Z,13.93
2022-11-07T20:02:25.969Z,6.93
2022-11-07T20:04:46.769Z,8.07
2022-11-07T20:07:16.163Z,9.20
2022-11-07T20:09:45.206Z,11.27
2022-11-07T20:12:14.028Z,8.93
2022-11-07T20:14:42.775Z,12.33
2022-11-07T20:17:12.968Z,8.83
2022-11-07T20:19:41.570Z,6.57
2022-11-07T20:22:12.200Z,5.97
2022-11-07T20:24:41.151Z,9.03
2022-11-07T20:27:09.856Z,10.20
2022-11-07T20:29:39.106Z,25.37
2022-11-07T20:32:08.218Z,31.43
2022-11-07T20:34:41.357Z,11.90
2022-11-07T20:37:10.776Z,11.73
2022-11-07T20:39:42.639Z,11.77
2022-11-07T20:42:11.609Z,9.90
2022-11-07T20:44:41.171Z,11.60
2022-11-07T20:47:11.018Z,9.50
2022-11-07T20:49:42.912Z,8.83
2022-11-07T20:52:11.812Z,10.47
2022-11-07T20:54:40.516Z,7.43
2022-11-07T20:57:09.639Z,5.93
2022-11-07T20:59:41.288Z,9.30
2022-11-07T21:02:13.123Z,6.37
2022-11-07T21:05:03.174Z,5.33
2022-11-07T21:07:31.814Z,9.37
2022-11-07T21:10:00.397Z,6.90
2022-11-07T21:12:29.236Z,6.67
2022-11-07T21:14:57.844Z,6.00
2022-11-07T21:17:26.524Z,6.90
2022-11-07T21:19:57.639Z,5.20
2022-11-07T21:22:29.351Z,8.50
2022-11-07T21:24:58.658Z,5.03
2022-11-07T21:27:27.279Z,4.80
2022-11-07T21:29:55.893Z,6.37
2022-11-07T21:32:24.524Z,6.03
2022-11-07T21:34:53.265Z,5.90
2022-11-07T21:37:23.276Z,6.17
2022-11-07T21:39:51.953Z,5.63
2022-11-07T21:42:20.679Z,6.47
2022-11-07T21:44:49.295Z,4.30
2022-11-07T21:47:17.883Z,7.93
2022-11-07T21:49:48.794Z,7.27
2022-11-07T21:52:18.017Z,6.33
2022-11-07T21:54:48.143Z,6.57
2022-11-07T21:57:16.771Z,5.60
2022-11-07T21:59:46.299Z,5.93
2022-11-07T22:02:15.139Z,6.73
2022-11-07T22:04:43.724Z,6.50
2022-11-07T22:07:12.837Z,6.67
2022-11-07T22:09:41.481Z,3.83
2022-11-07T22:12:11.513Z,6.17
2022-11-07T22:14:40.113Z,4.53
2022-11-07T22:17:08.692Z,6.00
2022-11-07T22:19:37.334Z,5.53
2022-11-07T22:22:05.905Z,5.23
2022-11-07T22:24:34.547Z,3.70
2022-11-07T22:27:03.192Z,3.87
2022-11-07T22:29:33.311Z,4.87
2022-11-07T22:32:02.375Z,6.23
2022-11-07T22:34:31.154Z,5.37
2022-11-07T22:37:00.456Z,5.53
2022-11-07T22:39:29.147Z,5.97
2022-11-07T22:41:57.714Z,5.83
2022-11-07T22:44:26.440Z,2.53
2022-11-07T22:46:56.380Z,3.40
2022-11-07T22:49:24.893Z,3.50
2022-11-07T22:51:53.535Z,4.13
2022-11-07T22:54:22.129Z,5.17
2022-11-07T22:56:50.740Z,4.40
2022-11-07T22:59:19.373Z,3.10
2022-11-07T23:01:48.046Z,9.47
2022-11-07T23:04:18.811Z,6.90
2022-11-07T23:06:47.492Z,4.20
2022-11-07T23:09:17.770Z,4.70
2022-11-07T23:11:48.269Z,4.97
2022-11-07T23:14:20.281Z,4.77
2022-11-07T23:16:51.598Z,5.53
2022-11-07T23:19:25.585Z,4.80
2022-11-07T23:21:56.489Z,7.37
2022-11-07T23:24:25.541Z,11.10
2022-11-07T23:26:54.248Z,7.40
2022-11-07T23:29:25.418Z,9.80
2022-11-07T23:31:54.304Z,10.60
2022-11-07T23:34:26.019Z,12.23
2022-11-07T23:36:54.654Z,14.97
2022-11-07T23:39:26.082Z,9.47
2022-11-07T23:41:54.734Z,9.00
2022-11-07T23:44:23.782Z,8.83
2022-11-07T23:47:09.897Z,10.87
2022-11-07T23:49:57.369Z,6.73
2022-11-07T23:52:25.972Z,9.23
2022-11-07T23:55:11.970Z,7.83
2022-11-07T23:57:54.507Z,13.53
